Tiempo atmosférico en la estación meteorológica de Belorado, Burgos (875 m.)



Fecha
DESCASC
Temp. máxima en grados centígrados (hora)
DESCASC
Temp. mínima en grados centígrados (hora)
DESCASC
Temp. media en grados centígrados
DESCASC
Racha de viento máxima en m/sg (hora)
DESCASC
Velocidad máxima media en intervalos de 10 minutos(hora)
DESCASC
Precipitaciones diarias en mm
DESCASC
Precipitaciones de 00:00 a 06:00 en mm
DESCASC
Precipitaciones de 06:00 a 12:00 en mm
DESCASC
Precipitaciones de 12:00 a 18:00 en mm
DESCASC
Precipitaciones de 18:00 a 24:00 en mm
DESCASC
18-04-2019 12.7 (00:20) 7.9 (07:20) 10.3 8.06 (05:40) 5.28 (05:40) 24 3 12.1 3 5.9
17-04-2019 16 (15:20) 5 (07:10) 10.5 10.28 (17:20) 7.22 (17:30) 0.9 0 0 0 0.9
16-04-2019 15.9 (16:30) 5.9 (00:00) 10.9 7.22 (18:20) 4.72 (19:00) 0.4 0.4 0 0 0
15-04-2019 18.7 (15:00) 7.6 (00:00) 13.2 11.67 (16:20) 5.83 (15:20) 3.4 0 0 2.5 0.9
14-04-2019 19.9 (16:00) 8.3 (00:00) 14.1 7.22 (13:00) 4.44 (14:20) 0 0 0 0 0
13-04-2019 18.6 (16:10) -1.8 (-00:0) 8.4 8.61 (18:20) 5.56 (17:40) 0 0 0 0 0
12-04-2019 12.8 (17:50) 1.6 (00:00) 7.2 6.11 (18:40) 2.78 (18:00) 0 0 0 0 0
11-04-2019 9.2 (16:10) 2.7 (00:00) 5.9 7.5 (11:50) 5 (18:30) 0.2 0 0 0 0.2
10-04-2019 10.3 (15:40) 3.3 (00:00) 6.8 7.78 (15:50) 4.72 (16:40) 0.8 0.1 0.2 0.3 0.2
09-04-2019 11.2 (14:40) 3.3 (00:00) 7.2 13.61 (19:20) 5.56 (19:30) 6.6 0 0 0 6.6
08-04-2019 13.3 (16:30) 5.4 (00:00) 9.4 10.28 (05:50) 5.28 (15:10) 0.9 0 0.6 0.3 0
07-04-2019 11.2 (17:50) 2.3 (00:00) 6.7 10 (05:30) 3.61 (05:00) 0.1 0.1 0 0 0
06-04-2019 8.8 (18:00) 2.7 (00:00) 5.8 13.06 (16:20) 4.72 (13:20) 3.9 0 0 1.9 2
05-04-2019 7.3 (13:10) 2.3 (00:00) 4.8 8.89 (22:30) 3.33 (10:20) 0.8 0 0 0.8 0
04-04-2019 10.9 (16:30) -1.6 (-00:0) 4.6 11.67 (20:30) 4.17 (20:40) 0 0 0 0 0
03-04-2019 6.9 (00:10) -0.4 (00:00) 3.3 12.78 (17:10) 6.39 (17:10) 2.1 0.3 0.8 1 0
02-04-2019 15.2 (16:20) 2 (00:00) 8.6 8.33 (19:00) 5 (19:00) 0 0 0 0 0
01-04-2019 12.2 (18:40) 4.2 (00:00) 8.2 8.33 (00:20) 5.28 (00:40) 0 0 0 0 0
31-03-2019 15.9 (16:30) -0.9 (-00:0) 7.5 11.11 (15:30) 6.39 (15:00) 0 0 0 0 0
30-03-2019 16 (15:10) -0.4 (00:00) 7.8 8.06 (14:40) 5.28 (14:40) 0 0 0 0 0
29-03-2019 16.4 (16:10) -0.5 (-00:0) 7.9 8.61 (14:20) 5.28 (14:00) 0 0 0 0 0
28-03-2019 14.2 (16:10) -0.8 (-00:0) 6.7 8.06 (13:20) 4.17 (17:10) 0 0 0 0 0
27-03-2019 14.3 (15:40) -0.5 (-00:0) 6.9 8.33 (15:40) 5.28 (15:50) 0 0 0 0 0
26-03-2019 13.8 (16:20) 0 (00:00) 6.9 13.89 (14:50) 6.39 (16:40) 0 0 0 0 0
25-03-2019 11.6 (16:10) 0.6 (00:00) 6.1 8.89 (16:20) 5.83 (17:30) 0 0 0 0 0
24-03-2019 18.5 (15:00) 3.5 (00:00) 11 10.83 (14:20) 4.72 (18:20) 0 0 0 0 0
23-03-2019 18.5 (16:10) 1.8 (00:00) 10.1 8.33 (16:10) 5 (16:30) 0 0 0 0 0
22-03-2019 15.8 (15:50) -1 (-00:0) 7.4 7.5 (16:50) 3.61 (16:20) 0 0 0 0 0
21-03-2019 11.4 (16:50) -1.2 (-00:0) 5.1 12.5 (15:00) 3.89 (12:50) 0 0 0 0 0

Gráficas

Temp. máximas Temp. mínimas Temp. medias Precipitaciones Rachas de viento máximas Velocidades máximas media en intervalos de 10 minutos

Datos horarios

Fecha y hora oficial Temperatura (ºC) Velocidad del viento (km/h) Dirección del viento Racha (km/h) Dirección de racha Precipitación (mm) Presión (hPa) Tendencia (hPa) Humedad (%)
2019-04-19 23:00:00 9.2 5 Nordeste 10 Este 0 -- -- 81
2019-04-19 22:00:00 9.3 5 Este 12 Este 0 -- -- 80
2019-04-19 21:00:00 10.5 6 Nordeste 18 Este 0 -- -- 72
2019-04-19 20:00:00 11.9 9 Nordeste 29 Este 0 -- -- 66
2019-04-19 19:00:00 12.7 17 Este 35 Este 0 -- -- 64
2019-04-19 18:00:00 12.8 23 Este 38 Este 0 -- -- 64
2019-04-19 17:00:00 13.1 22 Este 39 Este 0 -- -- 67
2019-04-19 16:00:00 13 26 Este 40 Este 0 -- -- 67
2019-04-19 15:00:00 12.7 18 Nordeste 35 Este 0 -- -- 74
2019-04-19 14:00:00 12.2 15 Este 25 Este 0 -- -- 85
2019-04-19 13:00:00 9.3 14 Este 28 Este 0 -- -- 95
2019-04-19 12:00:00 8.4 17 Este 25 Este 0.2 -- -- 99
2019-04-19 11:00:00 8.1 15 Este 26 Este 0.2 -- -- 99
2019-04-19 10:00:00 7.4 9 Nordeste 29 Este 0 -- -- 99
2019-04-19 09:00:00 7.5 21 Este 31 Este 0 -- -- 99
2019-04-19 08:00:00 7.3 18 Este 29 Este 0.1 -- -- 99
2019-04-19 07:00:00 7.3 14 Nordeste 25 Este 0 -- -- 99
2019-04-19 06:00:00 7.4 12 Nordeste 28 Este 0 -- -- 99
2019-04-19 05:00:00 7.7 10 Nordeste 22 Norte 0.1 -- -- 99
2019-04-19 04:00:00 7.8 3 Norte 15 Este 0.1 -- -- 97
2019-04-19 03:00:00 7.9 0 Calma 33 Este 0.1 -- -- 96
2019-04-19 02:00:00 8.3 17 Este 28 Este 0.1 -- -- 97
2019-04-19 01:00:00 8.3 10 Nordeste 28 Este 0.5 -- -- 99
2019-04-19 00:00:00 8.3 8 Este 23 Norte 1.1 -- -- 99
2019-04-18 23:00:00 8.1 6 Este 14 Este 1.5 -- -- 98
2019-04-18 22:00:00 8.2 6 Nordeste 11 Norte 0.3 -- -- 97
2019-04-18 21:00:00 8.4 4 Nordeste 17 Este 1.8 -- -- 93
2019-04-18 20:00:00 9.1 6 Nordeste 14 Norte 1 -- -- 92
2019-04-18 19:00:00 10 4 Nordeste 15 Este 0.2 -- -- 87
2019-04-18 18:00:00 10.2 6 Este 14 Este 0.6 -- -- 90
2019-04-18 17:00:00 9.9 9 Este 24 Nordeste 1.2 -- -- 88
2019-04-18 16:00:00 10.1 5 Nordeste 13 Este 0 -- -- 92
2019-04-18 15:00:00 9 8 Este 14 Norte 0 -- -- 97
2019-04-18 14:00:00 9.1 0 Calma 7 Oeste 0.2 -- -- 91
2019-04-18 13:00:00 8.6 0 Calma 10 Este 1 -- -- 93
2019-04-18 12:00:00 8.1 4 Este 10 Este 1.8 -- -- 91
2019-04-18 11:00:00 8.2 0 Calma 13 Este 1.7 -- -- 95
2019-04-18 10:00:00 8.3 9 Este 12 Este 2.4 -- -- 99
2019-04-18 09:00:00 8.2 7 Este 14 Este 2 -- -- 99
2019-04-18 08:00:00 7.9 11 Este 17 Este 1.5 -- -- 99
2019-04-18 07:00:00 8.1 5 Este 10 Este 2.7 -- -- 99
2019-04-18 06:00:00 8.1 4 Sudeste 29 Este 1.6 -- -- 98
2019-04-18 05:00:00 8.2 18 Este 25 Este 1 -- -- 99
2019-04-18 04:00:00 8.7 14 Este 27 Este 0.2 -- -- 96
2019-04-18 03:00:00 9.6 18 Este 27 Este 0 -- -- 90
2019-04-18 02:00:00 10.6 8 Este 25 Este 0 -- -- 95
2019-04-18 01:00:00 10.9 15 Este 23 Este 0.2 -- -- 90
2019-04-18 00:00:00 11.9 5 Sudoeste 20 Oeste 0.2 -- -- 83
2019-04-17 23:00:00 11.6 0 Calma 12 Oeste 0.1 -- -- 83
2019-04-17 22:00:00 12.5 5 Oeste 34 Oeste 0.6 -- -- 79
2019-04-17 21:00:00 13.2 8 Este 26 Este 0 -- -- 69
2019-04-17 20:00:00 14.3 17 Este 27 Este 0 -- -- 62
2019-04-17 19:00:00 14.9 18 Este 33 Este 0 -- -- 60
2019-04-17 18:00:00 15.7 19 Este 37 Este 0 -- -- 60
2019-04-17 17:00:00 15.2 22 Este 35 Este 0 -- -- 61
2019-04-17 16:00:00 15.1 23 Este 32 Este 0 -- -- 62
2019-04-17 15:00:00 15.2 10 Este 21 Este 0 -- -- 66
2019-04-17 14:00:00 12.7 3 Noroeste 9 Sudoeste 0 -- -- 78
2019-04-17 13:00:00 9.7 0 Calma 14 Este 0 -- -- 90
2019-04-17 12:00:00 8.6 5 Este 15 Este 0 -- -- 94
2019-04-17 11:00:00 7.5 6 Este 12 Norte 0 -- -- 97
2019-04-17 10:00:00 6.5 3 Este 9 Este 0 -- -- 97
2019-04-17 09:00:00 6.1 0 Calma 8 Este 0 -- -- 97
2019-04-17 08:00:00 5.7 6 Este 11 Este 0 -- -- 97
2019-04-17 07:00:00 5.5 4 Este 12 Este 0 -- -- 95
2019-04-17 06:00:00 6 3 Nordeste 32 Este 0 -- -- 94
2019-04-17 05:00:00 6.8 20 Este 28 Este 0 -- -- 93
2019-04-17 04:00:00 7.2 4 Sudeste 14 Este 0 -- -- 90
2019-04-17 03:00:00 7.2 3 Nordeste 13 Norte 0 -- -- 89
2019-04-17 02:00:00 7.1 0 Calma 7 Sur 0 -- -- 86
2019-04-17 01:00:00 7.5 0 Calma 6 Oeste 0 -- -- 85
2019-04-17 00:00:00 8.2 0 Calma 7 Sur 0 -- -- 83
2019-04-16 23:00:00 9.4 3 Sur 12 Este 0 -- -- 82
2019-04-16 22:00:00 10.3 8 Este 16 Este 0 -- -- 79
2019-04-16 21:00:00 11 10 Este 21 Este 0 -- -- 71
2019-04-16 20:00:00 13.8 13 Este 25 Este 0 -- -- 59
2019-04-16 19:00:00 15.2 17 Este 26 Este 0 -- -- 56
2019-04-16 18:00:00 15.4 15 Este 23 Este 0 -- -- 55
2019-04-16 17:00:00 15.4 13 Este 23 Este 0 -- -- 55
2019-04-16 16:00:00 15.4 10 Este 20 Este 0 -- -- 60
2019-04-16 15:00:00 14 8 Este 23 Este 0 -- -- 62
2019-04-16 14:00:00 13.4 11 Este 20 Este 0 -- -- 68
2019-04-16 13:00:00 12.1 5 Nordeste 22 Este 0 -- -- 68
2019-04-16 12:00:00 11.8 7 Norte 14 Norte 0 -- -- 76
2019-04-16 11:00:00 10.9 5 Nordeste 13 Norte 0 -- -- 77
2019-04-16 10:00:00 9.2 8 Este 15 Este 0 -- -- 83
2019-04-16 09:00:00 8.1 9 Este 13 Este 0 -- -- 89
2019-04-16 08:00:00 6.7 7 Este 11 Norte 0 -- -- 96
2019-04-16 07:00:00 6.5 9 Este 14 Este 0 -- -- 96
2019-04-16 06:00:00 7.4 6 Este 13 Este 0 -- -- 97
2019-04-16 05:00:00 7.6 6 Este 12 Este 0 -- -- 97
2019-04-16 04:00:00 7.8 9 Este 14 Este 0.1 -- -- 98
2019-04-16 03:00:00 8 7 Este 18 Este 0.3 -- -- 99
2019-04-16 02:00:00 8 11 Este 17 Este 0 -- -- 98
2019-04-16 01:00:00 8.4 7 Nordeste 17 Este 0 -- -- 98
2019-04-16 00:00:00 8.3 10 Este 17 Este 0 -- -- 99
2019-04-15 23:00:00 8.7 10 Este 19 Este 0 -- -- 99
2019-04-15 22:00:00 9.4 10 Este 22 Nordeste 0.9 -- -- 99
2019-04-15 21:00:00 10.3 12 Este 26 Este 0 -- -- 95
2019-04-15 20:00:00 14 9 Sudoeste 37 Sur 0 -- -- 69
2019-04-15 19:00:00 14.1 6 Sudoeste 18 Oeste 0 -- -- 79
2019-04-15 18:00:00 14.1 5 Sudoeste 22 Oeste 0.2 -- -- 79
2019-04-15 17:00:00 12.7 7 Sur 42 Oeste 2.2 -- -- 81
2019-04-15 16:00:00 17.2 12 Nordeste 30 Este 0.1 -- -- 69
2019-04-15 15:00:00 18.4 16 Este 26 Este 0 -- -- 63
2019-04-15 14:00:00 16.3 10 Este 17 Este 0 -- -- 71
2019-04-15 13:00:00 14.3 8 Este 15 Este 0 -- -- 77
2019-04-15 12:00:00 13.2 4 Nordeste 14 Este 0 -- -- 83
2019-04-15 11:00:00 13.3 8 Este 15 Este 0 -- -- 84
2019-04-15 10:00:00 11.4 8 Este 12 Este 0 -- -- 87
2019-04-15 09:00:00 9.5 0 Calma 3 Sur 0 -- -- 92
2019-04-15 08:00:00 8.6 0 Calma 4 Sudeste 0 -- -- 93
2019-04-15 07:00:00 8.3 0 Calma 5 Sur 0 -- -- 92
2019-04-15 06:00:00 8.3 0 Calma 6 Sur 0 -- -- 92
2019-04-15 05:00:00 8.6 5 Este 8 Este 0 -- -- 91
2019-04-15 04:00:00 8.6 3 Sudoeste 6 Oeste 0 -- -- 90
2019-04-15 03:00:00 9 0 Calma 9 Oeste 0 -- -- 87
2019-04-15 02:00:00 9.3 0 Calma 8 Sur 0 -- -- 86
2019-04-15 01:00:00 9.9 2 Sudoeste 8 Oeste 0 -- -- 83
2019-04-15 00:00:00 10.2 0 Calma 7 Sur 0 -- -- 81
2019-04-14 23:00:00 11.3 2 Sudoeste 10 Sur 0 -- -- 77
2019-04-14 22:00:00 12.8 2 Sur 10 Este 0 -- -- 76
2019-04-14 21:00:00 13.4 5 Este 12 Este 0 -- -- 71
2019-04-14 20:00:00 16.3 8 Este 14 Nordeste 0 -- -- 58
2019-04-14 19:00:00 18.4 4 Nordeste 16 Oeste 0 -- -- 53
2019-04-14 18:00:00 19.1 5 Norte 19 Norte 0 -- -- 51
2019-04-14 17:00:00 18.8 12 Oeste 20 Oeste 0 -- -- 50
2019-04-14 16:00:00 19.9 10 Noroeste 23 Oeste 0 -- -- 50
2019-04-14 15:00:00 18.6 12 Noroeste 26 Oeste 0 -- -- 51
2019-04-14 14:00:00 17.5 14 Oeste 23 Oeste 0 -- -- 54
2019-04-14 13:00:00 17.5 11 Noroeste 26 Oeste 0 -- -- 56
2019-04-14 12:00:00 15.8 10 Noroeste 21 Oeste 0 -- -- 56
2019-04-14 11:00:00 15.1 9 Oeste 19 Oeste 0 -- -- 58
2019-04-14 10:00:00 14 4 Sudoeste 13 Oeste 0 -- -- 66
2019-04-14 09:00:00 11.3 2 Oeste 8 Oeste 0 -- -- 76
2019-04-14 08:00:00 9.5 0 Calma 14 Oeste 0 -- -- 77
2019-04-14 07:00:00 11.6 6 Sudoeste 15 Oeste 0 -- -- 69
2019-04-14 06:00:00 10.1 3 Sudoeste 9 Oeste 0 -- -- 70
2019-04-14 05:00:00 10 2 Sudoeste 9 Oeste 0 -- -- 69
2019-04-14 04:00:00 9.3 3 Oeste 6 Oeste 0 -- -- 67
2019-04-14 03:00:00 8.9 0 Calma 8 Sur 0 -- -- 61
2019-04-14 02:00:00 8.7 5 Sudoeste 9 Oeste 0 -- -- 59
2019-04-14 01:00:00 10.6 0 Calma 9 Este 0 -- -- 54
2019-04-14 00:00:00 12 0 Calma 8 Oeste 0 -- -- 45
2019-04-13 23:00:00 12.1 3 Sudoeste 11 Sur 0 -- -- 44
2019-04-13 22:00:00 12.4 3 Sudoeste 10 Oeste 0 -- -- 38
2019-04-13 21:00:00 13.6 4 Sudoeste 20 Oeste 0 -- -- 34
2019-04-13 20:00:00 16.6 10 Oeste 26 Oeste 0 -- -- 28
2019-04-13 19:00:00 17.6 16 Oeste 31 Oeste 0 -- -- 25
2019-04-13 18:00:00 18.1 19 Oeste 30 Oeste 0 -- -- 23
2019-04-13 17:00:00 18.2 17 Oeste 29 Oeste 0 -- -- 20
2019-04-13 16:00:00 18 17 Oeste 30 Norte 0 -- -- 19
2019-04-13 15:00:00 17.2 5 Oeste 19 Oeste 0 -- -- 18
2019-04-13 14:00:00 16.5 4 Oeste 19 Oeste 0 -- -- 20
2019-04-13 13:00:00 16 5 Norte 13 Norte 0 -- -- 15
2019-04-13 12:00:00 14 5 Noroeste 12 Oeste 0 -- -- 14
2019-04-13 11:00:00 12.7 3 Noroeste 8 Norte 0 -- -- 20
2019-04-13 10:00:00 8.9 0 Calma 8 Sur 0 -- -- 36
2019-04-13 09:00:00 3.9 0 Calma 11 Sur 0 -- -- 41
2019-04-13 08:00:00 -0.8 2 Sur 8 Sur 0 -- -- 51
2019-04-13 07:00:00 -1 0 Calma 11 Sur 0 -- -- 53
2019-04-13 06:00:00 -0.1 5 Sudoeste 13 Sur 0 -- -- 51
2019-04-13 05:00:00 0.1 5 Sudoeste 13 Oeste 0 -- -- 55
2019-04-13 04:00:00 -0.1 3 Sur 13 Sur 0 -- -- 61
2019-04-13 03:00:00 0.4 6 Sudoeste 12 Oeste 0 -- -- 66
2019-04-13 02:00:00 0.7 3 Sudoeste 10 Oeste 0 -- -- 73
2019-04-13 01:00:00 0.7 0 Calma 13 Sur 0 -- -- 79
2019-04-13 00:00:00 2.7 4 Sudoeste 9 Oeste 0 -- -- 83
2019-04-12 23:00:00 4 3 Sudoeste 6 Oeste 0 -- -- 79
2019-04-12 22:00:00 5.5 6 Este 9 Este 0 -- -- 79
2019-04-12 21:00:00 7.3 9 Este 14 Norte 0 -- -- 66
2019-04-12 20:00:00 10.8 7 Nordeste 15 Este 0 -- -- 50
2019-04-12 19:00:00 12.1 9 Este 22 Este 0 -- -- 46
2019-04-12 18:00:00 12.4 10 Este 21 Nordeste 0 -- -- 45
2019-04-12 17:00:00 12.1 9 Nordeste 19 Norte 0 -- -- 48
2019-04-12 16:00:00 11.7 5 Nordeste 21 Norte 0 -- -- 52
2019-04-12 15:00:00 10 4 Norte 19 Norte 0 -- -- 54
2019-04-12 14:00:00 9.7 9 Norte 19 Este 0 -- -- 63
2019-04-12 13:00:00 9.3 7 Nordeste 16 Norte 0 -- -- 63
2019-04-12 12:00:00 6.9 7 Este 19 Este 0 -- -- 75
2019-04-12 11:00:00 6.8 6 Este 15 Nordeste 0 -- -- 78
2019-04-12 10:00:00 5.4 3 Noroeste 7 Norte 0 -- -- 87
2019-04-12 09:00:00 2.9 0 Calma 4 Sur 0 -- -- 97
2019-04-12 08:00:00 2.2 0 Calma 8 Sur 0 -- -- 97
2019-04-12 07:00:00 1.9 0 Calma 9 Oeste 0 -- -- 97
2019-04-12 06:00:00 1.7 0 Calma 9 Oeste 0 -- -- 96
2019-04-12 05:00:00 2.1 3 Sudoeste 7 Oeste 0 -- -- 97
2019-04-12 04:00:00 3 0 Calma 6 Oeste 0 -- -- 97
2019-04-12 03:00:00 3.6 0 Calma 6 Este 0 -- -- 95
2019-04-12 02:00:00 4.8 0 Calma 8 Este 0 -- -- 95
2019-04-12 01:00:00 5.1 0 Calma 11 Este 0 -- -- 99
2019-04-12 00:00:00 5.2 7 Este 15 Nordeste 0.1 -- -- 98
2019-04-11 23:00:00 5.4 8 Nordeste 13 Este 0 -- -- 97
2019-04-11 22:00:00 5.8 5 Norte 13 Norte 0.1 -- -- 93
2019-04-11 21:00:00 6.2 7 Norte 13 Norte 0 -- -- 88
2019-04-11 20:00:00 6.8 11 Norte 18 Norte 0 -- -- 83
2019-04-11 19:00:00 7.3 11 Norte 24 Norte 0 -- -- 84
2019-04-11 18:00:00 8.3 13 Norte 23 Norte 0 -- -- 74
2019-04-11 17:00:00 8.9 14 Noroeste 23 Norte 0 -- -- 69
2019-04-11 16:00:00 9 10 Noroeste 22 Norte 0 -- -- 66
2019-04-11 15:00:00 8.2 10 Norte 20 Oeste 0 -- -- 70
2019-04-11 14:00:00 8.2 9 Oeste 22 Oeste 0 -- -- 68
2019-04-11 13:00:00 7.7 8 Oeste 18 Noroeste 0 -- -- 73
2019-04-11 12:00:00 6.5 13 Norte 27 Noroeste 0 -- -- 77
2019-04-11 11:00:00 6.2 6 Noroeste 17 Oeste 0 -- -- 80
2019-04-11 10:00:00 5.6 9 Oeste 14 Oeste 0 -- -- 84
2019-04-11 09:00:00 4.7 4 Sudoeste 12 Oeste 0 -- -- 90
2019-04-11 08:00:00 4 4 Oeste 11 Sudoeste 0 -- -- 94
2019-04-11 07:00:00 3.9 2 Sudoeste 5 Oeste 0 -- -- 97
2019-04-11 06:00:00 3.5 0 Calma 8 Sur 0 -- -- 96
2019-04-11 05:00:00 3.1 2 Sudoeste 9 Sur 0 -- -- 96
2019-04-11 04:00:00 2.9 3 Sur 9 Sur 0 -- -- 95
2019-04-11 03:00:00 4.4 2 Sudoeste 5 Oeste 0 -- -- 93
2019-04-11 02:00:00 4.9 0 Calma 9 Norte 0 -- -- 92
2019-04-11 01:00:00 5.1 0 Calma 5 Sur 0 -- -- 92
2019-04-11 00:00:00 5.1 0 Calma 5 Norte 0 -- -- 91
2019-04-10 23:00:00 5.3 0 Calma 10 Este 0 -- -- 92
2019-04-10 22:00:00 5.7 5 Este 12 Este 0.1 -- -- 94
2019-04-10 21:00:00 5.7 13 Norte 27 Norte 0.1 -- -- 90
2019-04-10 20:00:00 6.9 6 Nordeste 12 Este 0 -- -- 84
2019-04-10 19:00:00 6.7 6 Este 15 Este 0 -- -- 86
2019-04-10 18:00:00 6.9 8 Este 18 Este 0.3 -- -- 86
2019-04-10 17:00:00 6.8 14 Este 26 Este 0 -- -- 86
2019-04-10 16:00:00 7.5 15 Nordeste 28 Norte 0 -- -- 74
2019-04-10 15:00:00 9.1 6 Noroeste 15 Oeste 0 -- -- 65
2019-04-10 14:00:00 8.1 3 Norte 13 Oeste 0 -- -- 72
2019-04-10 13:00:00 7.2 3 Sudoeste 9 Oeste 0 -- -- 72
2019-04-10 12:00:00 5.6 3 Noroeste 13 Norte 0.2 -- -- 88
2019-04-10 11:00:00 5.1 5 Oeste 10 Oeste 0 -- -- 88
2019-04-10 10:00:00 4.8 5 Oeste 11 Oeste 0 -- -- 89
2019-04-10 09:00:00 4.8 3 Sudoeste 8 Oeste 0 -- -- 90
2019-04-10 08:00:00 4.5 2 Oeste 12 Oeste 0 -- -- 90
2019-04-10 07:00:00 4.5 5 Oeste 15 Oeste 0 -- -- 90
2019-04-10 06:00:00 4.7 6 Oeste 19 Oeste 0 -- -- 88
2019-04-10 05:00:00 4.8 6 Oeste 15 Sudoeste 0 -- -- 90
2019-04-10 04:00:00 4 5 Sudoeste 16 Oeste 0 -- -- 92
2019-04-10 03:00:00 3.7 4 Sudoeste 13 Sur 0 -- -- 93
2019-04-10 02:00:00 4.2 3 Sudoeste 12 Sur 0 -- -- 93
2019-04-10 01:00:00 3.4 0 Calma 9 Sur 0.1 -- -- 93
2019-04-10 00:00:00 3.3 2 Sudeste 20 Oeste 5.8 -- -- 89
2019-04-09 23:00:00 5.1 3 Sur 17 Sur 0 -- -- 85
2019-04-09 22:00:00 4.5 3 Sudeste 12 Sur 0.1 -- -- 90
2019-04-09 21:00:00 4.6 3 Sur 28 Norte 0 -- -- 92
2019-04-09 20:00:00 4.4 15 Norte 49 Oeste 0.7 -- -- 91
2019-04-09 19:00:00 7.6 9 Sudoeste 28 Sur 0 -- -- 73
2019-04-09 18:00:00 8.2 11 Oeste 36 Sudoeste 0 -- -- 68
2019-04-09 17:00:00 9.1 16 Oeste 31 Oeste 0 -- -- 66
2019-04-09 16:00:00 9 10 Sudoeste 32 Oeste 0 -- -- 66
2019-04-09 15:00:00 7.6 19 Oeste 35 Oeste 0 -- -- 72
2019-04-09 14:00:00 10.2 10 Sudoeste 35 Oeste 0 -- -- 62
2019-04-09 13:00:00 9.5 13 Oeste 33 Sur 0 -- -- 63
2019-04-09 12:00:00 8.7 10 Sudoeste 35 Oeste 0 -- -- 67
2019-04-09 11:00:00 7.9 12 Sudoeste 36 Oeste 0 -- -- 71
2019-04-09 10:00:00 7.6 11 Sudoeste 32 Oeste 0 -- -- 72
2019-04-09 09:00:00 5.9 10 Sudoeste 32 Sur 0 -- -- 77
2019-04-09 08:00:00 5.3 9 Sudoeste 27 Oeste 0 -- -- 79
2019-04-09 07:00:00 5.2 9 Sudoeste 29 Oeste 0 -- -- 80
2019-04-09 06:00:00 5 9 Sudoeste 28 Sur 0 -- -- 79
2019-04-09 05:00:00 5.4 10 Sudoeste 29 Sur 0 -- -- 76
2019-04-09 04:00:00 5.7 8 Sur 27 Sur 0 -- -- 75
2019-04-09 03:00:00 6.1 9 Sudoeste 24 Oeste 0 -- -- 73
2019-04-09 02:00:00 6.2 8 Sudoeste 24 Oeste 0 -- -- 71
2019-04-09 01:00:00 6.5 8 Sudoeste 23 Oeste 0 -- -- 66
2019-04-09 00:00:00 6.8 6 Sudoeste 17 Sur 0 -- -- 65
2019-04-08 23:00:00 6.5 3 Sudoeste 9 Sur 0 -- -- 59
2019-04-08 22:00:00 7.2 3 Sudoeste 12 Sudoeste 0 -- -- 52
2019-04-08 21:00:00 8.1 0 Calma 21 Oeste 0 -- -- 48
2019-04-08 20:00:00 11.6 11 Oeste 24 Oeste 0 -- -- 38
2019-04-08 19:00:00 12.5 13 Oeste 31 Oeste 0 -- -- 40
2019-04-08 18:00:00 11.9 10 Oeste 31 Oeste 0.3 -- -- 53
2019-04-08 17:00:00 12 15 Oeste 34 Oeste 0 -- -- 48
2019-04-08 16:00:00 13.1 13 Sudoeste 36 Oeste 0 -- -- 46
2019-04-08 15:00:00 11.4 18 Oeste 37 Oeste 0 -- -- 62
2019-04-08 14:00:00 11 16 Oeste 34 Oeste 0 -- -- 66
2019-04-08 13:00:00 9.9 8 Sudoeste 23 Oeste 0 -- -- 70
2019-04-08 12:00:00 8.8 8 Oeste 33 Oeste 0.4 -- -- 83
2019-04-08 11:00:00 10.6 10 Sudoeste 29 Sur 0 -- -- 70
2019-04-08 10:00:00 9 7 Sudoeste 30 Sudoeste 0.2 -- -- 82
2019-04-08 09:00:00 8.7 7 Sudoeste 26 Oeste 0 -- -- 83
2019-04-08 08:00:00 8.1 6 Sudoeste 28 Sur 0 -- -- 81
2019-04-08 07:00:00 8.2 10 Sudoeste 31 Sur 0 -- -- 80
2019-04-08 06:00:00 8.2 11 Sudoeste 37 Oeste 0 -- -- 80
2019-04-08 05:00:00 8.1 12 Sudoeste 33 Oeste 0 -- -- 79
2019-04-08 04:00:00 8 9 Sur 28 Oeste 0 -- -- 76
2019-04-08 03:00:00 8.2 5 Sudoeste 30 Sur 0 -- -- 73
2019-04-08 02:00:00 8.4 8 Sudoeste 25 Oeste 0 -- -- 71
2019-04-08 01:00:00 5.5 6 Este 10 Este 0 -- -- 82
2019-04-08 00:00:00 5.8 0 Calma 13 Oeste 0 -- -- 78
2019-04-07 23:00:00 6.3 5 Oeste 18 Oeste 0 -- -- 73
2019-04-07 22:00:00 6.3 7 Oeste 31 Sur 0 -- -- 73
2019-04-07 21:00:00 7.6 13 Sudoeste 34 Oeste 0 -- -- 53
2019-04-07 20:00:00 9.4 5 Sudoeste 21 Sur 0 -- -- 44
2019-04-07 19:00:00 9.7 7 Sur 30 Sur 0 -- -- 42
2019-04-07 18:00:00 10.3 9 Sudoeste 32 Sur 0 -- -- 42
2019-04-07 17:00:00 10.2 7 Sudoeste 27 Sur 0 -- -- 45
2019-04-07 16:00:00 9.9 8 Sudoeste 26 Sur 0 -- -- 45
2019-04-07 15:00:00 10.1 8 Sudoeste 26 Oeste 0 -- -- 48
2019-04-07 14:00:00 9.3 9 Sudoeste 27 Oeste 0 -- -- 52
2019-04-07 13:00:00 7.8 10 Sudoeste 26 Sudoeste 0 -- -- 59
2019-04-07 12:00:00 6.7 8 Sudoeste 24 Sur 0 -- -- 67
2019-04-07 11:00:00 4.9 8 Sudoeste 25 Sur 0 -- -- 74
2019-04-07 10:00:00 3.5 9 Sudoeste 26 Sur 0 -- -- 80
2019-04-07 09:00:00 2.8 9 Sudoeste 26 Oeste 0 -- -- 83
2019-04-07 08:00:00 2.5 6 Sudoeste 18 Sur 0 -- -- 84
2019-04-07 07:00:00 2.4 8 Sudoeste 23 Sur 0 -- -- 84
2019-04-07 06:00:00 2.5 8 Sudoeste 36 Sur 0 -- -- 85
2019-04-07 05:00:00 2.6 13 Sudoeste 30 Oeste 0 -- -- 83
2019-04-07 04:00:00 2.8 8 Sudoeste 28 Oeste 0 -- -- 83
2019-04-07 03:00:00 3 9 Sudoeste 27 Oeste 0 -- -- 83
2019-04-07 02:00:00 3.3 5 Sudoeste 20 Oeste 0 -- -- 86
2019-04-07 01:00:00 3.2 0 Calma 21 Oeste 0.1 -- -- 92
2019-04-07 00:00:00 3.3 9 Oeste 22 Oeste 0 -- -- 90
2019-04-06 23:00:00 3.4 9 Oeste 23 Oeste 0 -- -- 88
2019-04-06 22:00:00 3.6 6 Sudoeste 25 Oeste 1.5 -- -- 87
2019-04-06 21:00:00 4.2 6 Sudoeste 27 Sur 0 -- -- 80
2019-04-06 20:00:00 4.8 8 Sudoeste 31 Oeste 0 -- -- 79
2019-04-06 19:00:00 3.7 9 Sudoeste 41 Oeste 0.5 -- -- 86
2019-04-06 18:00:00 8.2 10 Sudoeste 35 Oeste 0 -- -- 66
2019-04-06 17:00:00 6.9 13 Sudoeste 47 Oeste 0.1 -- -- 76
2019-04-06 16:00:00 6.4 13 Oeste 32 Oeste 1.4 -- -- 78
2019-04-06 15:00:00 7.1 10 Sudoeste 42 Oeste 0.4 -- -- 73
2019-04-06 14:00:00 6.8 10 Sudoeste 43 Oeste 0 -- -- 60
2019-04-06 13:00:00 6 16 Sudoeste 46 Oeste 0 -- -- 61
2019-04-06 12:00:00 6.3 9 Sur 33 Sur 0 -- -- 67
2019-04-06 11:00:00 5.8 12 Sudoeste 34 Oeste 0 -- -- 70
2019-04-06 10:00:00 4.8 12 Sudoeste 34 Oeste 0 -- -- 71
2019-04-06 09:00:00 3.7 9 Sudoeste 32 Oeste 0 -- -- 74
2019-04-06 08:00:00 2.8 11 Sudoeste 32 Oeste 0 -- -- 80
2019-04-06 07:00:00 3 9 Sudoeste 32 Oeste 0 -- -- 80
2019-04-06 06:00:00 3 9 Sudoeste 27 Oeste 0 -- -- 78
2019-04-06 05:00:00 3.5 8 Sudoeste 27 Sur 0 -- -- 76
2019-04-06 04:00:00 3.3 9 Sudoeste 23 Oeste 0 -- -- 80
2019-04-06 03:00:00 3.4 8 Sudoeste 23 Oeste 0 -- -- 78
2019-04-06 02:00:00 3.1 7 Sur 29 Sur 0 -- -- 78
2019-04-06 01:00:00 3.3 6 Sudoeste 23 Sur 0 -- -- 76
2019-04-06 00:00:00 3.4 5 Sur 22 Oeste 0 -- -- 73
2019-04-05 23:00:00 3.4 7 Sudoeste 32 Sur 0 -- -- 70
2019-04-05 22:00:00 3.5 3 Oeste 13 Sur 0 -- -- 69
2019-04-05 21:00:00 3.6 4 Sudoeste 18 Sur 0 -- -- 68
2019-04-05 20:00:00 5.3 5 Sur 22 Oeste 0 -- -- 69
2019-04-05 19:00:00 5.9 9 Sudoeste 22 Sudoeste 0 -- -- 68
2019-04-05 18:00:00 5.2 6 Sur 24 Sur 0 -- -- 74
2019-04-05 17:00:00 3.7 12 Sur 30 Sur 0 -- -- 78
2019-04-05 16:00:00 5.4 10 Sudoeste 27 Oeste 0 -- -- 69
2019-04-05 15:00:00 6.1 5 Sudoeste 21 Sur 0.1 -- -- 76
2019-04-05 14:00:00 5.8 8 Sur 27 Oeste 0 -- -- 74
2019-04-05 13:00:00 7.1 6 Sur 31 Sur 0.7 -- -- 76
2019-04-05 12:00:00 5.2 5 Oeste 21 Oeste 0 -- -- 78
2019-04-05 11:00:00 5.1 12 Este 18 Este 0 -- -- 75
2019-04-05 10:00:00 4.2 9 Este 16 Este 0 -- -- 78
2019-04-05 09:00:00 5.5 5 Sudoeste 24 Oeste 0 -- -- 71
2019-04-05 08:00:00 5.3 7 Sudoeste 30 Oeste 0 -- -- 71
2019-04-05 07:00:00 4.7 5 Sur 18 Sur 0 -- -- 76
2019-04-05 06:00:00 3.2 2 Noroeste 9 Norte 0 -- -- 80
2019-04-05 05:00:00 2.5 3 Noroeste 9 Norte 0 -- -- 79
2019-04-05 04:00:00 2.7 0 Calma 7 Oeste 0 -- -- 79
2019-04-05 03:00:00 2.4 3 Sur 11 Sur 0 -- -- 77
2019-04-05 02:00:00 2.4 3 Sudoeste 6 Oeste 0 -- -- 77
2019-04-05 01:00:00 3.1 2 Sudeste 11 Oeste 0 -- -- 76
2019-04-05 00:00:00 3.9 4 Sudoeste 19 Oeste 0 -- -- 73
2019-04-04 23:00:00 4 7 Sudoeste 26 Oeste 0 -- -- 70
2019-04-04 22:00:00 6 10 Sudoeste 33 Oeste 0 -- -- 45
2019-04-04 21:00:00 7.5 11 Sudoeste 42 Oeste 0 -- -- 34
2019-04-04 20:00:00 8.7 12 Sudoeste 29 Oeste 0 -- -- 29
2019-04-04 19:00:00 9.3 12 Sudoeste 37 Oeste 0 -- -- 27
2019-04-04 18:00:00 10 10 Sudoeste 33 Oeste 0 -- -- 28
2019-04-04 17:00:00 10.5 12 Sudoeste 37 Sur 0 -- -- 27
2019-04-04 16:00:00 10 10 Sudoeste 35 Oeste 0 -- -- 31
2019-04-04 15:00:00 8.7 8 Sur 35 Sur 0 -- -- 36
2019-04-04 14:00:00 8 9 Sudoeste 35 Oeste 0 -- -- 41
2019-04-04 13:00:00 7 8 Sudoeste 35 Oeste 0 -- -- 45
2019-04-04 12:00:00 5.3 12 Sudoeste 34 Oeste 0 -- -- 51
2019-04-04 11:00:00 4.1 11 Sudoeste 24 Oeste 0 -- -- 55
2019-04-04 10:00:00 2.8 7 Sudoeste 18 Sur 0 -- -- 61
2019-04-04 09:00:00 0.8 6 Sudoeste 18 Sudoeste 0 -- -- 68
2019-04-04 08:00:00 -0.5 7 Sudoeste 25 Sur 0 -- -- 69
2019-04-04 07:00:00 -0.6 5 Sudoeste 21 Sur 0 -- -- 71
2019-04-04 06:00:00 -0.7 5 Sudoeste 17 Sur 0 -- -- 73
2019-04-04 05:00:00 -0.9 4 Sudoeste 18 Sur 0 -- -- 75
2019-04-04 04:00:00 -1.2 4 Oeste 14 Oeste 0 -- -- 76
2019-04-04 03:00:00 -1.3 3 Oeste 16 Oeste 0 -- -- 79
2019-04-04 02:00:00 -1.6 0 Calma 8 Sur 0 -- -- 80
2019-04-04 01:00:00 -0.2 6 Oeste 14 Sur 0 -- -- 76
2019-04-04 00:00:00 1.1 3 Sudoeste 11 Oeste 0 -- -- 70
2019-04-03 23:00:00 0.6 4 Sudoeste 12 Sur 0 -- -- 73
2019-04-03 22:00:00 0.6 4 Sudoeste 8 Sur 0 -- -- 75
2019-04-03 21:00:00 2 4 Noroeste 22 Oeste 0 -- -- 66
2019-04-03 20:00:00 3.3 6 Oeste 22 Norte 0 -- -- 66
2019-04-03 19:00:00 3.2 20 Norte 33 Norte 0 -- -- 69
2019-04-03 18:00:00 4.8 13 Norte 46 Oeste 0 -- -- 64
2019-04-03 17:00:00 5 17 Oeste 36 Oeste 0 -- -- 62
2019-04-03 16:00:00 2.6 2 Sur 37 Norte 1 -- -- 93
2019-04-03 15:00:00 5.1 12 Norte 22 Norte 0 -- -- 77
2019-04-03 14:00:00 4.4 6 Sudoeste 31 Norte 0 -- -- 73
2019-04-03 13:00:00 4.9 8 Noroeste 27 Norte 0 -- -- 78
2019-04-03 12:00:00 3.6 15 Noroeste 28 Norte 0.5 -- -- 83
2019-04-03 11:00:00 4.3 10 Noroeste 17 Norte 0 -- -- 81
2019-04-03 10:00:00 3.5 12 Norte 17 Norte 0.2 -- -- 87
2019-04-03 09:00:00 3.7 5 Oeste 9 Oeste 0.1 -- -- 84
2019-04-03 08:00:00 4.1 6 Oeste 13 Oeste 0 -- -- 87
2019-04-03 07:00:00 4.5 4 Oeste 9 Oeste 0 -- -- 90
2019-04-03 06:00:00 4.8 0 Calma 6 Norte 0 -- -- 97
2019-04-03 05:00:00 4.7 5 Norte 10 Norte 0.1 -- -- 99
2019-04-03 04:00:00 5.2 6 Este 11 Este 0 -- -- 99
2019-04-03 03:00:00 5.5 8 Este 12 Este 0.2 -- -- 99
2019-04-03 02:00:00 5.8 3 Norte 12 Este 0 -- -- 99
2019-04-03 01:00:00 6.1 6 Este 13 Norte 0 -- -- 96
2019-04-03 00:00:00 6.8 8 Nordeste 16 Este 0 -- -- 84
2019-04-02 23:00:00 7.2 8 Este 17 Este 0 -- -- 81
2019-04-02 22:00:00 7.5 11 Este 20 Este 0 -- -- 80
2019-04-02 21:00:00 8 10 Este 20 Este 0 -- -- 77
2019-04-02 20:00:00 9.4 10 Nordeste 29 Este 0 -- -- 70
2019-04-02 19:00:00 11.5 18 Norte 30 Norte 0 -- -- 53
2019-04-02 18:00:00 14.7 2 Norte 17 Norte 0 -- -- 42
2019-04-02 17:00:00 14.4 10 Este 21 Este 0 -- -- 43
2019-04-02 16:00:00 14.2 7 Norte 22 Norte 0 -- -- 42
2019-04-02 15:00:00 13.9 7 Norte 20 Este 0 -- -- 44
2019-04-02 14:00:00 13 9 Nordeste 20 Norte 0 -- -- 48
2019-04-02 13:00:00 13.1 8 Norte 28 Este 0 -- -- 49
2019-04-02 12:00:00 11.9 8 Nordeste 19 Este 0 -- -- 51
2019-04-02 11:00:00 11.5 5 Nordeste 19 Este 0 -- -- 62
2019-04-02 10:00:00 8.9 0 Calma 5 Sur 0 -- -- 86
2019-04-02 09:00:00 5 0 Calma 9 Sur 0 -- -- 93
2019-04-02 08:00:00 2.8 4 Sudoeste 11 Sur 0 -- -- 95
2019-04-02 07:00:00 2.5 0 Calma 11 Oeste 0 -- -- 94
2019-04-02 06:00:00 2.4 4 Sudoeste 11 Sur 0 -- -- 95
2019-04-02 05:00:00 2.9 3 Sudoeste 10 Oeste 0 -- -- 95
2019-04-02 04:00:00 2.9 5 Sur 12 Sur 0 -- -- 94
2019-04-02 03:00:00 3.4 0 Calma 8 Sur 0 -- -- 93
2019-04-02 02:00:00 4.2 0 Calma 10 Sur 0 -- -- 92
2019-04-02 01:00:00 4.3 0 Calma 11 Sur 0 -- -- 92
2019-04-02 00:00:00 4.2 2 Sudoeste 9 Oeste 0 -- -- 90
2019-04-01 23:00:00 5.3 4 Sudoeste 10 Sur 0 -- -- 88
2019-04-01 22:00:00 6.1 4 Sudoeste 9 Este 0 -- -- 84
2019-04-01 21:00:00 7.3 3 Este 11 Este 0 -- -- 81
2019-04-01 20:00:00 9.6 8 Este 15 Este 0 -- -- 72
2019-04-01 19:00:00 11.4 10 Este 16 Este 0 -- -- 68
2019-04-01 18:00:00 11.8 9 Este 16 Este 0 -- -- 68
2019-04-01 17:00:00 10.4 7 Este 13 Este 0 -- -- 78
2019-04-01 16:00:00 9.5 9 Este 17 Este 0 -- -- 78
2019-04-01 15:00:00 9.8 10 Este 18 Este 0 -- -- 76
2019-04-01 14:00:00 9.7 5 Este 14 Este 0 -- -- 76
2019-04-01 13:00:00 8.4 5 Nordeste 12 Este 0 -- -- 78
2019-04-01 12:00:00 8.1 5 Este 12 Norte 0 -- -- 81
2019-04-01 11:00:00 7 5 Norte 10 Norte 0 -- -- 86
2019-04-01 10:00:00 6.2 2 Norte 3 Norte 0 -- -- 90
2019-04-01 09:00:00 5.2 2 Norte 8 Oeste 0 -- -- 94
2019-04-01 08:00:00 5.2 0 Calma 6 Oeste 0 -- -- 94
2019-04-01 07:00:00 4.8 0 Calma 4 Noroeste 0 -- -- 94
2019-04-01 06:00:00 5 0 Calma 10 Este 0 -- -- 97
2019-04-01 05:00:00 5 7 Este 15 Este 0 -- -- 96
2019-04-01 04:00:00 4.9 9 Nordeste 21 Este 0 -- -- 97
2019-04-01 03:00:00 5.3 14 Este 27 Este 0 -- -- 95
2019-04-01 02:00:00 6.2 15 Este 27 Este 0 -- -- 81
2019-04-01 01:00:00 8.2 12 Este 30 Este 0 -- -- 62
2019-04-01 00:00:00 8.8 13 Este 20 Este 0 -- -- 57
2019-03-31 23:00:00 8.9 10 Nordeste 22 Este 0 -- -- 56
2019-03-31 22:00:00 9 12 Este 22 Nordeste 0 -- -- 51
2019-03-31 21:00:00 9.6 14 Este 23 Este 0 -- -- 45
2019-03-31 20:00:00 10.8 14 Este 31 Este 0 -- -- 40
2019-03-31 19:00:00 12 17 Este 32 Este 0 -- -- 43
2019-03-31 18:00:00 13.3 19 Este 36 Este 0 -- -- 45
2019-03-31 17:00:00 15.3 21 Este 34 Este 0 -- -- 43
2019-03-31 16:00:00 14.5 21 Este 40 Este 0 -- -- 45
2019-03-31 15:00:00 14.3 23 Este 34 Este 0 -- -- 51
2019-03-31 14:00:00 12.9 19 Este 32 Este 0 -- -- 56
2019-03-31 13:00:00 11.2 17 Este 28 Este 0 -- -- 63
2019-03-31 12:00:00 9.7 14 Este 27 Este 0 -- -- 70
2019-03-31 11:00:00 7.9 16 Este 24 Este 0 -- -- 75
2019-03-31 10:00:00 4.7 0 Calma 6 Sur 0 -- -- 76
2019-03-31 09:00:00 2.1 0 Calma 5 Sur 0 -- -- 81
2019-03-31 08:00:00 -0.7 0 Calma 7 Oeste 0 -- -- 84
2019-03-31 07:00:00 0.1 3 Sudoeste 9 Oeste 0 -- -- 82
2019-03-31 06:00:00 0.3 4 Sudoeste 8 Oeste 0 -- -- 79
2019-03-31 05:00:00 1 4 Sudoeste 9 Sur 0 -- -- 77
2019-03-31 03:00:00 2.8 4 Sudoeste 10 Sur 0 -- -- 72
2019-03-31 01:00:00 3.9 3 Sudoeste 8 Sur 0 -- -- 68
2019-03-31 00:00:00 4.8 4 Sudoeste 9 Oeste 0 -- -- 66
2019-03-30 23:00:00 5 2 Sudoeste 10 Sur 0 -- -- 63
2019-03-30 22:00:00 6.1 4 Sudoeste 10 Sur 0 -- -- 57
2019-03-30 21:00:00 8.6 2 Este 13 Este 0 -- -- 48
2019-03-30 20:00:00 9.4 6 Este 23 Este 0 -- -- 46
2019-03-30 19:00:00 12.2 14 Este 22 Este 0 -- -- 43
2019-03-30 18:00:00 14.2 14 Este 27 Este 0 -- -- 41
2019-03-30 17:00:00 14.3 18 Este 28 Este 0 -- -- 41
2019-03-30 16:00:00 15.3 18 Este 28 Este 0 -- -- 40
2019-03-30 15:00:00 15.3 17 Este 29 Este 0 -- -- 44
2019-03-30 14:00:00 14.8 15 Este 25 Este 0 -- -- 52
2019-03-30 13:00:00 12.1 13 Este 22 Este 0 -- -- 58
2019-03-30 12:00:00 10.8 11 Este 19 Este 0 -- -- 60
2019-03-30 11:00:00 9.4 8 Este 16 Este 0 -- -- 64
2019-03-30 10:00:00 7.8 6 Este 12 Este 0 -- -- 68
2019-03-30 09:00:00 5.6 0 Calma 8 Este 0 -- -- 76
2019-03-30 08:00:00 1.1 0 Calma 6 Oeste 0 -- -- 86
2019-03-30 07:00:00 -0.3 4 Sudoeste 8 Oeste 0 -- -- 86
2019-03-30 06:00:00 0 4 Sur 9 Sur 0 -- -- 83
2019-03-30 05:00:00 0.7 3 Sur 8 Sur 0 -- -- 80
2019-03-30 04:00:00 1.2 4 Sudoeste 9 Oeste 0 -- -- 75
2019-03-30 03:00:00 2.2 4 Sudoeste 10 Oeste 0 -- -- 70
2019-03-30 02:00:00 2.5 3 Sudoeste 9 Sur 0 -- -- 66
2019-03-30 01:00:00 3.3 2 Sudoeste 8 Sur 0 -- -- 60
2019-03-30 00:00:00 3.8 0 Calma 9 Sur 0 -- -- 55
2019-03-29 23:00:00 5.1 4 Sudoeste 9 Oeste 0 -- -- 51
2019-03-29 22:00:00 6.3 0 Calma 6 Este 0 -- -- 52
2019-03-29 21:00:00 7.8 0 Calma 13 Oeste 0 -- -- 49
2019-03-29 20:00:00 9.6 10 Este 19 Este 0 -- -- 43
2019-03-29 19:00:00 13.4 16 Este 23 Este 0 -- -- 36
2019-03-29 18:00:00 15.5 14 Este 25 Este 0 -- -- 36
2019-03-29 17:00:00 16.1 17 Este 28 Este 0 -- -- 37
2019-03-29 16:00:00 15.8 19 Este 30 Este 0 -- -- 38
2019-03-29 15:00:00 16.1 18 Este 31 Este 0 -- -- 39
2019-03-29 14:00:00 14.1 19 Este 28 Este 0 -- -- 45
2019-03-29 13:00:00 12.4 13 Este 23 Este 0 -- -- 50
2019-03-29 12:00:00 10.8 9 Este 18 Este 0 -- -- 58
2019-03-29 11:00:00 8.5 8 Este 17 Este 0 -- -- 66
2019-03-29 10:00:00 7.1 9 Este 17 Este 0 -- -- 72
2019-03-29 09:00:00 5.5 8 Este 12 Este 0 -- -- 76
2019-03-29 08:00:00 1.7 0 Calma 6 Sur 0 -- -- 88
2019-03-29 07:00:00 -0.2 2 Sudoeste 10 Oeste 0 -- -- 91
2019-03-29 06:00:00 -0.1 3 Sudoeste 10 Sur 0 -- -- 90
2019-03-29 05:00:00 0 3 Sudoeste 9 Sur 0 -- -- 89
2019-03-29 04:00:00 0.4 4 Sudoeste 9 Sur 0 -- -- 88
2019-03-29 03:00:00 0.6 2 Sur 9 Sur 0 -- -- 86
2019-03-29 02:00:00 1.2 4 Sudoeste 8 Oeste 0 -- -- 85
2019-03-29 01:00:00 1.8 3 Sur 8 Oeste 0 -- -- 83
2019-03-29 00:00:00 2.8 3 Sur 11 Este 0 -- -- 81
2019-03-28 23:00:00 3.5 8 Este 11 Este 0 -- -- 83
2019-03-28 22:00:00 4.4 8 Este 12 Este 0 -- -- 83
2019-03-28 21:00:00 5.2 8 Este 14 Este 0 -- -- 76
2019-03-28 20:00:00 7.4 9 Este 18 Norte 0 -- -- 66
2019-03-28 19:00:00 10.7 10 Nordeste 22 Este 0 -- -- 54
2019-03-28 18:00:00 12.8 13 Norte 25 Norte 0 -- -- 45
2019-03-28 17:00:00 13.7 14 Norte 29 Oeste 0 -- -- 42
2019-03-28 16:00:00 13.6 9 Nordeste 24 Este 0 -- -- 42
2019-03-28 15:00:00 13.1 12 Nordeste 24 Norte 0 -- -- 43
2019-03-28 14:00:00 12.6 9 Nordeste 29 Norte 0 -- -- 48
2019-03-28 13:00:00 11.3 12 Norte 24 Norte 0 -- -- 52
2019-03-28 12:00:00 9.7 9 Nordeste 25 Norte 0 -- -- 61
2019-03-28 11:00:00 8.4 8 Nordeste 21 Este 0 -- -- 69
2019-03-28 10:00:00 7.2 13 Este 19 Este 0 -- -- 75
2019-03-28 09:00:00 5.7 9 Este 17 Este 0 -- -- 83
2019-03-28 08:00:00 2.5 5 Este 8 Este 0 -- -- 93
2019-03-28 07:00:00 0 5 Este 8 Este 0 -- -- 96
2019-03-28 06:00:00 0.2 5 Este 6 Este 0 -- -- 94
2019-03-28 05:00:00 0.5 3 Este 7 Este 0 -- -- 93
2019-03-28 04:00:00 -0.5 5 Este 9 Este 0 -- -- 92
2019-03-28 03:00:00 0 6 Este 9 Este 0 -- -- 89
2019-03-28 02:00:00 0 6 Este 8 Este 0 -- -- 86
2019-03-28 01:00:00 0.6 7 Este 10 Este 0 -- -- 77
2019-03-28 00:00:00 1.2 9 Este 14 Este 0 -- -- 68
2019-03-27 23:00:00 1.7 8 Este 15 Este 0 -- -- 57
2019-03-27 22:00:00 3.1 12 Este 19 Este 0 -- -- 47
2019-03-27 21:00:00 3.6 12 Este 17 Este 0 -- -- 53
2019-03-27 20:00:00 5.3 11 Este 19 Este 0 -- -- 46
2019-03-27 19:00:00 9.2 12 Norte 24 Norte 0 -- -- 40
2019-03-27 18:00:00 11.5 17 Norte 30 Norte 0 -- -- 37
2019-03-27 17:00:00 12.8 16 Norte 29 Norte 0 -- -- 34
2019-03-27 16:00:00 13.9 18 Norte 30 Norte 0 -- -- 33
2019-03-27 15:00:00 13.1 14 Nordeste 29 Norte 0 -- -- 32
2019-03-27 14:00:00 12.6 13 Norte 26 Este 0 -- -- 35
2019-03-27 13:00:00 12.1 12 Nordeste 29 Norte 0 -- -- 37
2019-03-27 12:00:00 10.5 11 Nordeste 22 Este 0 -- -- 38
2019-03-27 11:00:00 9.4 11 Este 19 Norte 0 -- -- 44
2019-03-27 10:00:00 8 10 Este 17 Este 0 -- -- 51
2019-03-27 09:00:00 6.1 6 Este 12 Este 0 -- -- 65
2019-03-27 08:00:00 1.9 0 Calma 10 Este 0 -- -- 86
2019-03-27 07:00:00 0 6 Este 10 Este 0 -- -- 90
2019-03-27 06:00:00 0.1 6 Este 9 Este 0 -- -- 92
2019-03-27 05:00:00 0.4 6 Este 12 Este 0 -- -- 93
2019-03-27 04:00:00 0.3 8 Este 13 Este 0 -- -- 93
2019-03-27 03:00:00 1.2 10 Este 14 Este 0 -- -- 93
2019-03-27 02:00:00 0.5 6 Este 10 Este 0 -- -- 92
2019-03-27 01:00:00 0.7 8 Este 12 Este 0 -- -- 87
2019-03-27 00:00:00 0.8 8 Este 11 Este 0 -- -- 79
2019-03-26 23:00:00 1.8 9 Este 16 Este 0 -- -- 69
2019-03-26 22:00:00 2.9 12 Este 31 Este 0 -- -- 61
2019-03-26 21:00:00 4.5 18 Este 28 Este 0 -- -- 50
2019-03-26 20:00:00 5.5 16 Este 26 Este 0 -- -- 35
2019-03-26 19:00:00 8.2 15 Este 33 Este 0 -- -- 27
2019-03-26 18:00:00 10.6 19 Norte 36 Norte 0 -- -- 24
2019-03-26 17:00:00 12.8 18 Norte 39 Norte 0 -- -- 24
2019-03-26 16:00:00 13.4 20 Norte 35 Norte 0 -- -- 25
2019-03-26 15:00:00 12.8 14 Nordeste 50 Norte 0 -- -- 28
2019-03-26 14:00:00 11.4 12 Nordeste 25 Este 0 -- -- 32
2019-03-26 13:00:00 10.6 14 Este 25 Este 0 -- -- 39
2019-03-26 12:00:00 8.8 14 Este 27 Este 0 -- -- 45
2019-03-26 11:00:00 6.8 11 Nordeste 29 Norte 0 -- -- 57
2019-03-26 10:00:00 5.5 13 Este 22 Este 0 -- -- 66
2019-03-26 09:00:00 4.1 11 Este 21 Este 0 -- -- 75
2019-03-26 08:00:00 2 9 Este 14 Este 0 -- -- 87
2019-03-26 07:00:00 0.3 8 Este 12 Este 0 -- -- 92
2019-03-26 06:00:00 1.3 7 Este 11 Este 0 -- -- 90
2019-03-26 05:00:00 3.6 6 Nordeste 22 Este 0 -- -- 86
2019-03-26 04:00:00 3.9 9 Este 14 Este 0 -- -- 85
2019-03-26 03:00:00 3.3 8 Este 12 Este 0 -- -- 84
2019-03-26 02:00:00 3.2 8 Este 14 Este 0 -- -- 82
2019-03-26 01:00:00 3 4 Este 13 Sur 0 -- -- 82
2019-03-26 00:00:00 1.4 7 Este 13 Este 0 -- -- 88
2019-03-25 23:00:00 1.3 9 Este 15 Este 0 -- -- 83
2019-03-25 22:00:00 2 10 Este 20 Norte 0 -- -- 79
2019-03-25 21:00:00 3.7 13 Nordeste 23 Norte 0 -- -- 73
2019-03-25 20:00:00 4.4 11 Norte 22 Norte 0 -- -- 68
2019-03-25 19:00:00 6.6 16 Norte 28 Norte 0 -- -- 61
2019-03-25 18:00:00 8.6 19 Norte 30 Norte 0 -- -- 57
2019-03-25 17:00:00 10 20 Norte 32 Norte 0 -- -- 52
2019-03-25 16:00:00 11.2 14 Norte 30 Norte 0 -- -- 48
2019-03-25 15:00:00 10.4 15 Norte 30 Norte 0 -- -- 55
2019-03-25 14:00:00 10.2 13 Este 23 Norte 0 -- -- 54
2019-03-25 13:00:00 8.8 13 Nordeste 26 Este 0 -- -- 58
2019-03-25 12:00:00 8 14 Nordeste 27 Norte 0 -- -- 64
2019-03-25 11:00:00 7.1 12 Nordeste 23 Norte 0 -- -- 77
2019-03-25 10:00:00 6.6 8 Este 13 Este 0 -- -- 80
2019-03-25 09:00:00 6.3 5 Este 10 Este 0 -- -- 85
2019-03-25 08:00:00 5.6 6 Este 14 Este 0 -- -- 88
2019-03-25 07:00:00 5.7 7 Este 12 Este 0 -- -- 89
2019-03-25 06:00:00 5.1 5 Este 11 Nordeste 0 -- -- 93
2019-03-25 05:00:00 4 6 Este 15 Este 0 -- -- 95
2019-03-25 04:00:00 3 10 Este 14 Este 0 -- -- 90
2019-03-25 03:00:00 2.7 6 Este 9 Este 0 -- -- 83
2019-03-25 02:00:00 3.6 3 Este 12 Este 0 -- -- 78
2019-03-25 01:00:00 4.6 7 Este 11 Este 0 -- -- 77
2019-03-25 00:00:00 6.2 7 Este 12 Este 0 -- -- 72
2019-03-24 23:00:00 6 2 Sudeste 8 Sur 0 -- -- 73
2019-03-24 22:00:00 7.2 2 Sur 8 Este 0 -- -- 69
2019-03-24 21:00:00 8.1 8 Este 16 Este 0 -- -- 63
2019-03-24 20:00:00 10.3 10 Este 17 Norte 0 -- -- 54
2019-03-24 19:00:00 13.4 10 Norte 28 Norte 0 -- -- 46
2019-03-24 18:00:00 16.2 17 Norte 28 Norte 0 -- -- 39
2019-03-24 17:00:00 17.5 12 Nordeste 30 Norte 0 -- -- 31
2019-03-24 16:00:00 18.2 12 Norte 23 Norte 0 -- -- 33
2019-03-24 15:00:00 18.3 12 Nordeste 39 Norte 0 -- -- 34
2019-03-24 14:00:00 17.9 12 Norte 24 Norte 0 -- -- 38
2019-03-24 13:00:00 16.5 10 Norte 20 Norte 0 -- -- 43
2019-03-24 12:00:00 15.9 10 Nordeste 19 Este 0 -- -- 45
2019-03-24 11:00:00 14.4 7 Nordeste 13 Norte 0 -- -- 48
2019-03-24 10:00:00 12.4 6 Norte 9 Norte 0 -- -- 55
2019-03-24 09:00:00 9.6 0 Calma 11 Sur 0 -- -- 63
2019-03-24 08:00:00 5 5 Sur 11 Oeste 0 -- -- 66
2019-03-24 07:00:00 3.6 4 Sudoeste 11 Oeste 0 -- -- 66
2019-03-24 06:00:00 3.8 7 Sur 14 Sur 0 -- -- 65
2019-03-24 05:00:00 4 6 Sudoeste 13 Oeste 0 -- -- 64
2019-03-24 04:00:00 4.6 4 Sudoeste 10 Sur 0 -- -- 63
2019-03-24 03:00:00 4.7 3 Sudoeste 14 Oeste 0 -- -- 64
2019-03-24 02:00:00 4.8 5 Sudoeste 11 Sur 0 -- -- 66
2019-03-24 01:00:00 5.3 6 Sudoeste 11 Sur 0 -- -- 61
2019-03-24 00:00:00 6.3 5 Sudoeste 11 Oeste 0 -- -- 55
2019-03-23 23:00:00 6.3 5 Sudoeste 10 Sur 0 -- -- 51
2019-03-23 22:00:00 7.3 4 Sur 13 Sur 0 -- -- 47
2019-03-23 21:00:00 9.3 5 Sudoeste 13 Este 0 -- -- 42
2019-03-23 20:00:00 11.1 7 Este 12 Este 0 -- -- 38
2019-03-23 19:00:00 14.6 9 Este 27 Este 0 -- -- 34
2019-03-23 18:00:00 17.1 17 Este 27 Este 0 -- -- 32
2019-03-23 17:00:00 18 17 Este 30 Este 0 -- -- 32
2019-03-23 16:00:00 18.1 13 Este 24 Este 0 -- -- 34
2019-03-23 15:00:00 17.5 15 Este 23 Este 0 -- -- 36
2019-03-23 14:00:00 16.6 10 Este 22 Este 0 -- -- 38
2019-03-23 13:00:00 16.1 8 Norte 17 Norte 0 -- -- 41
2019-03-23 12:00:00 14.3 7 Norte 14 Norte 0 -- -- 43
2019-03-23 11:00:00 13.3 3 Norte 12 Este 0 -- -- 49
2019-03-23 10:00:00 11.8 6 Nordeste 12 Este 0 -- -- 55
2019-03-23 09:00:00 8.5 0 Calma 8 Sur 0 -- -- 67
2019-03-23 08:00:00 3.8 4 Sudoeste 9 Oeste 0 -- -- 76
2019-03-23 07:00:00 2.3 3 Sudoeste 9 Sur 0 -- -- 78
2019-03-23 06:00:00 2.2 5 Sudoeste 10 Oeste 0 -- -- 77
2019-03-23 05:00:00 2.6 4 Sudoeste 12 Sur 0 -- -- 74
2019-03-23 04:00:00 2.8 3 Sudoeste 10 Sur 0 -- -- 73
2019-03-23 03:00:00 2.9 6 Sudoeste 12 Sur 0 -- -- 72
2019-03-23 02:00:00 3.2 4 Sudoeste 12 Oeste 0 -- -- 69
2019-03-23 01:00:00 3.4 2 Sur 13 Sur 0 -- -- 67
2019-03-23 00:00:00 4 6 Sudoeste 13 Oeste 0 -- -- 63
2019-03-22 23:00:00 4.6 4 Sudoeste 12 Sur 0 -- -- 58
2019-03-22 22:00:00 6.1 5 Sudoeste 12 Oeste 0 -- -- 52
2019-03-22 21:00:00 6.8 5 Este 10 Este 0 -- -- 47
2019-03-22 20:00:00 9.3 9 Este 13 Este 0 -- -- 40
2019-03-22 19:00:00 12.2 6 Nordeste 18 Este 0 -- -- 34
2019-03-22 18:00:00 14.6 11 Este 19 Este 0 -- -- 29
2019-03-22 17:00:00 15.1 12 Este 27 Este 0 -- -- 29
2019-03-22 16:00:00 15.1 11 Nordeste 23 Este 0 -- -- 29
2019-03-22 15:00:00 14.8 13 Este 21 Nordeste 0 -- -- 31
2019-03-22 14:00:00 13.9 9 Este 25 Este 0 -- -- 34
2019-03-22 13:00:00 13.1 6 Norte 16 Norte 0 -- -- 41
2019-03-22 12:00:00 11.3 5 Norte 13 Norte 0 -- -- 45
2019-03-22 11:00:00 8.7 5 Norte 9 Norte 0 -- -- 52
2019-03-22 10:00:00 7 2 Norte 8 Noroeste 0 -- -- 62
2019-03-22 09:00:00 4.8 0 Calma 2 Sur 0 -- -- 69
2019-03-22 08:00:00 0.9 0 Calma 9 Sur 0 -- -- 79
2019-03-22 07:00:00 -0.5 5 Sudoeste 10 Sur 0 -- -- 81
2019-03-22 06:00:00 -0.7 2 Sudoeste 9 Sur 0 -- -- 82
2019-03-22 05:00:00 -0.5 6 Sur 10 Sur 0 -- -- 82
2019-03-22 04:00:00 -0.2 5 Sur 10 Sur 0 -- -- 84
2019-03-22 03:00:00 -0.2 4 Sudoeste 10 Sur 0 -- -- 85
2019-03-22 02:00:00 -0.1 2 Sudoeste 13 Sur 0 -- -- 86
2019-03-22 01:00:00 0.3 3 Sudoeste 11 Oeste 0 -- -- 86
2019-03-22 00:00:00 1.2 5 Sudoeste 11 Oeste 0 -- -- 84
2019-03-21 23:00:00 1.8 4 Sur 8 Sur 0 -- -- 80
2019-03-21 22:00:00 3 2 Sudoeste 9 Oeste 0 -- -- 73
2019-03-21 21:00:00 4.4 5 Este 9 Este 0 -- -- 68
2019-03-21 20:00:00 5.5 6 Este 13 Norte 0 -- -- 61
2019-03-21 19:00:00 8.6 7 Nordeste 20 Este 0 -- -- 48
2019-03-21 18:00:00 10.3 9 Nordeste 25 Norte 0 -- -- 45
2019-03-21 17:00:00 10.7 12 Nordeste 27 Este 0 -- -- 44
2019-03-21 16:00:00 10.8 13 Este 27 Norte 0 -- -- 43
2019-03-21 15:00:00 10.7 12 Nordeste 45 Este 0 -- -- 45
2019-03-21 14:00:00 9.7 11 Nordeste 23 Norte 0 -- -- 45
2019-03-21 13:00:00 8.6 14 Norte 26 Norte 0 -- -- 51
2019-03-21 12:00:00 8.1 11 Nordeste 39 Este 0 -- -- 62
2019-03-21 11:00:00 7.4 12 Este 18 Este 0 -- -- 69
2019-03-21 10:00:00 5.8 5 Este 14 Este 0 -- -- 82
2019-03-21 09:00:00 4.6 4 Este 9 Este 0 -- -- 89
2019-03-21 08:00:00 0.6 0 Calma 6 Sur 0 -- -- 97
2019-03-21 07:00:00 -0.7 3 Sudoeste 6 Sur 0 -- -- 97
2019-03-21 06:00:00 -0.9 0 Calma 5 Sur 0 -- -- 97
2019-03-21 05:00:00 -0.7 0 Calma 6 Sur 0 -- -- 97
2019-03-21 04:00:00 -0.7 0 Calma 5 Sur 0 -- -- 97
2019-03-21 03:00:00 -0.6 0 Calma 6 Este 0 -- -- 96
2019-03-21 02:00:00 -0.6 5 Este 7 Este 0 -- -- 95
2019-03-21 01:00:00 -0.2 6 Este 12 Este 0 -- -- 94
2019-03-21 00:00:00 0.5 7 Este 10 Este 0 -- -- 91